createdAt,value
2023-07-04T00:05:57.191Z,66.80
2023-07-04T00:16:02.017Z,67.10
2023-07-04T00:26:09.201Z,68.00
2023-07-04T00:36:17.349Z,69.00
2023-07-04T00:46:27.666Z,70.50
2023-07-04T00:56:31.831Z,70.70
2023-07-04T01:06:46.834Z,71.90
2023-07-04T01:16:51.014Z,73.10
2023-07-04T01:26:55.964Z,73.30
2023-07-04T01:37:01.410Z,75.50
2023-07-04T01:47:07.876Z,74.80
2023-07-04T01:57:12.114Z,76.30
2023-07-04T02:07:17.249Z,79.90
2023-07-04T02:17:21.097Z,79.70
2023-07-04T02:27:26.226Z,78.60
2023-07-04T02:37:29.936Z,79.10
2023-07-04T02:47:35.141Z,80.60
2023-07-04T02:57:38.833Z,83.20
2023-07-04T03:07:43.986Z,82.80
2023-07-04T03:17:49.552Z,77.20
2023-07-04T03:27:54.572Z,73.30
2023-07-04T03:37:58.381Z,72.50
2023-07-04T03:48:03.546Z,69.70
2023-07-04T03:58:07.690Z,70.70
2023-07-04T04:08:12.847Z,69.10
2023-07-04T04:18:16.521Z,73.00
2023-07-04T04:28:21.643Z,69.40
2023-07-04T04:38:25.522Z,59.00
2023-07-04T04:48:36.411Z,57.80
2023-07-04T04:58:44.660Z,56.30
2023-07-04T05:08:50.283Z,54.10
2023-07-04T05:18:54.180Z,50.10
2023-07-04T05:29:00.892Z,50.90
2023-07-04T05:39:07.309Z,50.20
2023-07-04T05:49:12.385Z,47.30
2023-07-04T05:59:16.111Z,43.10
2023-07-04T06:09:23.692Z,39.60
2023-07-04T06:19:27.687Z,37.10
2023-07-04T06:29:32.711Z,36.50
2023-07-04T06:39:36.442Z,33.20
2023-07-04T06:49:41.624Z,31.70
2023-07-04T06:59:46.490Z,26.20
2023-07-04T07:09:51.658Z,24.60
2023-07-04T07:19:56.767Z,22.30
2023-07-04T07:30:02.065Z,22.10
2023-07-04T07:40:07.483Z,21.80
2023-07-04T07:50:12.782Z,19.60
2023-07-04T08:00:17.992Z,20.40
2023-07-04T08:10:23.323Z,17.50
2023-07-04T08:20:27.096Z,18.80
2023-07-04T08:30:32.138Z,15.60
2023-07-04T08:40:35.848Z,15.60
2023-07-04T08:50:41.769Z,14.90
2023-07-04T09:00:46.381Z,13.00
2023-07-04T09:10:56.086Z,11.40
2023-07-04T09:21:07.158Z,11.50
2023-07-04T09:31:16.910Z,12.20
2023-07-04T09:41:21.497Z,11.00
2023-07-04T09:51:29.888Z,9.40
2023-07-04T10:01:34.487Z,10.80
2023-07-04T10:11:41.154Z,10.20
2023-07-04T10:21:49.233Z,7.60
2023-07-04T10:31:54.774Z,5.80
2023-07-04T10:42:09.501Z,4.90
2023-07-04T10:52:19.437Z,4.20
2023-07-04T11:02:31.468Z,2.50
2023-07-04T11:12:38.685Z,1.00
2023-07-04T11:23:04.758Z,1.00
2023-07-04T11:33:10.743Z,1.00
2023-07-04T11:43:25.412Z,1.00
2023-07-04T11:53:40.446Z,1.00
2023-07-04T12:04:07.925Z,1.00
2023-07-04T12:14:17.376Z,1.00
2023-07-04T12:24:25.299Z,1.00
2023-07-04T12:35:10.055Z,1.00
2023-07-04T12:44:54.658Z,1.00
2023-07-04T12:55:05.393Z,1.00
2023-07-04T13:05:15.316Z,1.00
2023-07-04T13:15:28.578Z,1.00
2023-07-04T13:35:45.677Z,1.00
2023-07-04T13:45:49.398Z,1.00
2023-07-04T13:55:55.975Z,1.00
2023-07-04T14:06:01.401Z,1.00
2023-07-04T14:26:22.488Z,1.00
2023-07-04T14:36:28.275Z,1.00
2023-07-04T14:46:32.011Z,1.00
2023-07-04T14:56:49.897Z,1.00
2023-07-04T15:06:58.587Z,1.00
2023-07-04T15:17:03.625Z,1.00
2023-07-04T15:27:08.426Z,1.00
2023-07-04T15:37:15.865Z,1.00
2023-07-04T15:47:19.780Z,1.00
2023-07-04T15:57:25.526Z,1.00
2023-07-04T16:07:30.933Z,1.00
2023-07-04T16:17:36.454Z,1.00
2023-07-04T16:27:40.747Z,1.00
2023-07-04T16:37:46.964Z,1.00
2023-07-04T16:47:50.839Z,1.00
2023-07-04T16:57:56.038Z,1.00
2023-07-04T17:08:00.312Z,1.00
2023-07-04T17:18:05.688Z,1.00
2023-07-04T17:28:09.433Z,1.00
2023-07-04T17:38:14.692Z,1.00
2023-07-04T17:48:18.640Z,1.00
2023-07-04T17:58:23.890Z,1.00
2023-07-04T18:08:28.033Z,1.00
2023-07-04T18:18:33.645Z,1.00
2023-07-04T18:28:40.282Z,1.00
2023-07-04T18:38:46.031Z,1.00
2023-07-04T18:48:50.006Z,1.00
2023-07-04T18:58:55.481Z,1.00
2023-07-04T19:09:01.456Z,1.00
2023-07-04T19:19:09.182Z,1.00
2023-07-04T19:29:13.330Z,1.00
2023-07-04T19:39:18.992Z,1.00
2023-07-04T19:49:24.079Z,1.00
2023-07-04T19:59:29.272Z,1.00
2023-07-04T20:09:33.754Z,1.00
2023-07-04T20:19:38.864Z,2.90
2023-07-04T20:29:42.684Z,2.50
2023-07-04T20:39:47.744Z,1.00
2023-07-04T20:49:53.102Z,1.00
2023-07-04T20:59:58.290Z,1.00
2023-07-04T21:10:02.226Z,1.00
2023-07-04T21:20:10.337Z,1.00
2023-07-04T21:30:14.352Z,3.40
2023-07-04T21:40:20.234Z,6.20
2023-07-04T21:50:24.322Z,12.00
2023-07-04T22:00:29.396Z,12.10
2023-07-04T22:10:33.429Z,12.60
2023-07-04T22:20:39.357Z,13.30
2023-07-04T22:30:43.192Z,14.50
2023-07-04T22:40:50.136Z,16.90
2023-07-04T22:50:58.755Z,20.40
2023-07-04T23:01:14.227Z,22.50
2023-07-04T23:11:19.209Z,25.60
2023-07-04T23:21:24.324Z,26.90
2023-07-04T23:31:28.134Z,29.50
2023-07-04T23:41:33.203Z,31.40
2023-07-04T23:51:36.946Z,32.90
